createdAt,value
2023-02-06T00:01:36.744Z,5.38
2023-02-06T00:04:05.319Z,6.47
2023-02-06T00:06:34.084Z,5.95
2023-02-06T00:09:03.657Z,5.15
2023-02-06T00:11:32.003Z,5.60
2023-02-06T00:14:01.669Z,5.57
2023-02-06T00:16:32.152Z,6.28
2023-02-06T00:19:01.156Z,5.40
2023-02-06T00:21:30.373Z,5.72
2023-02-06T00:24:02.665Z,5.55
2023-02-06T00:26:32.009Z,6.35
2023-02-06T00:29:01.629Z,5.75
2023-02-06T00:31:30.323Z,5.95
2023-02-06T00:33:58.530Z,6.47
2023-02-06T00:36:26.873Z,5.65
2023-02-06T00:38:55.600Z,5.50
2023-02-06T00:41:23.843Z,7.03
2023-02-06T00:43:52.010Z,5.80
2023-02-06T00:46:22.082Z,5.05
2023-02-06T00:48:50.314Z,5.28
2023-02-06T00:51:18.550Z,6.95
2023-02-06T00:53:47.778Z,5.60
2023-02-06T00:56:19.728Z,6.45
2023-02-06T00:58:48.525Z,6.63
2023-02-06T01:01:16.896Z,5.32
2023-02-06T01:03:46.521Z,5.20
2023-02-06T01:06:15.392Z,6.07
2023-02-06T01:08:43.798Z,5.97
2023-02-06T01:11:13.480Z,5.40
2023-02-06T01:13:42.604Z,5.35
2023-02-06T01:16:12.116Z,5.72
2023-02-06T01:18:40.834Z,6.22
2023-02-06T01:21:11.955Z,6.13
2023-02-06T01:23:40.596Z,6.05
2023-02-06T01:26:09.471Z,6.70
2023-02-06T01:28:39.231Z,5.95
2023-02-06T01:31:12.523Z,5.78
2023-02-06T01:33:41.393Z,5.32
2023-02-06T01:36:11.661Z,5.88
2023-02-06T01:38:39.930Z,6.55
2023-02-06T01:41:09.074Z,5.95
2023-02-06T01:43:39.777Z,6.15
2023-02-06T01:46:08.412Z,7.18
2023-02-06T01:48:40.092Z,6.30
2023-02-06T01:51:14.862Z,5.90
2023-02-06T01:53:45.590Z,5.68
2023-02-06T01:56:19.425Z,5.57
2023-02-06T01:58:52.643Z,5.45
2023-02-06T02:01:21.539Z,6.75
2023-02-06T02:03:53.870Z,6.47
2023-02-06T02:06:25.501Z,6.85
2023-02-06T02:08:58.382Z,6.50
2023-02-06T02:11:30.394Z,6.32
2023-02-06T02:13:59.016Z,6.30
2023-02-06T02:16:36.939Z,5.85
2023-02-06T02:19:43.284Z,7.40
2023-02-06T02:22:37.488Z,6.80
2023-02-06T02:28:11.030Z,6.97
2023-02-06T02:30:58.699Z,5.80
2023-02-06T02:34:07.544Z,6.13
2023-02-06T02:36:43.192Z,6.28
2023-02-06T02:39:25.986Z,6.53
2023-02-06T02:41:59.457Z,6.45
2023-02-06T02:44:35.698Z,6.45
2023-02-06T02:47:08.408Z,6.63
2023-02-06T02:49:39.314Z,6.40
2023-02-06T02:52:08.896Z,6.53
2023-02-06T02:54:37.507Z,6.40
2023-02-06T02:57:10.982Z,6.97
2023-02-06T02:59:43.592Z,6.65
2023-02-06T03:02:14.948Z,7.63
2023-02-06T03:04:47.533Z,6.55
2023-02-06T03:07:25.723Z,7.72
2023-02-06T03:10:02.064Z,6.10
2023-02-06T03:12:40.607Z,6.93
2023-02-06T03:15:19.789Z,6.65
2023-02-06T03:17:50.711Z,6.82
2023-02-06T03:20:20.271Z,6.07
2023-02-06T03:22:52.131Z,6.47
2023-02-06T03:25:26.559Z,6.53
2023-02-06T03:27:55.649Z,6.70
2023-02-06T03:30:26.606Z,6.10
2023-02-06T03:33:03.020Z,6.20
2023-02-06T03:35:34.570Z,6.40
2023-02-06T03:38:06.182Z,5.53
2023-02-06T03:40:34.912Z,5.45
2023-02-06T03:43:05.584Z,6.30
2023-02-06T03:45:38.528Z,6.60
2023-02-06T03:48:11.280Z,6.25
2023-02-06T03:50:44.463Z,6.60
2023-02-06T03:53:15.567Z,7.00
2023-02-06T03:55:46.561Z,6.68
2023-02-06T03:58:15.950Z,5.95
2023-02-06T04:00:47.280Z,7.35
2023-02-06T04:03:16.434Z,7.43
2023-02-06T04:05:44.656Z,6.70
2023-02-06T04:08:14.437Z,6.32
2023-02-06T04:10:42.746Z,6.90
2023-02-06T04:13:10.890Z,6.40
2023-02-06T04:15:39.341Z,6.80
2023-02-06T04:18:07.897Z,7.35
2023-02-06T04:20:41.069Z,7.75
2023-02-06T04:23:09.970Z,7.97
2023-02-06T04:25:39.589Z,7.53
2023-02-06T04:28:08.171Z,7.63
2023-02-06T04:30:36.720Z,7.45
2023-02-06T04:33:05.107Z,8.35
2023-02-06T04:35:33.890Z,9.40
2023-02-06T04:38:02.172Z,9.55
2023-02-06T04:40:30.474Z,9.25
2023-02-06T04:43:00.753Z,7.95
2023-02-06T04:45:29.045Z,7.63
2023-02-06T04:47:59.382Z,7.65
2023-02-06T04:50:31.567Z,9.55
2023-02-06T04:53:00.214Z,9.77
2023-02-06T04:55:28.882Z,9.27
2023-02-06T04:57:57.487Z,9.13
2023-02-06T05:00:27.149Z,7.40
2023-02-06T05:02:55.372Z,8.25
2023-02-06T05:05:23.866Z,7.72
2023-02-06T05:07:52.118Z,8.23
2023-02-06T05:10:20.493Z,7.38
2023-02-06T05:12:50.962Z,8.27
2023-02-06T05:15:19.444Z,8.43
2023-02-06T05:17:49.328Z,8.93
2023-02-06T05:20:18.178Z,8.02
2023-02-06T05:22:46.563Z,7.90
2023-02-06T05:25:15.191Z,8.60
2023-02-06T05:27:43.471Z,8.25
2023-02-06T05:30:13.121Z,8.35
2023-02-06T05:32:41.985Z,9.43
2023-02-06T05:35:12.341Z,9.48
2023-02-06T05:37:40.539Z,9.43
2023-02-06T05:40:10.032Z,8.82
2023-02-06T05:42:38.390Z,8.63
2023-02-06T05:45:07.387Z,8.77
2023-02-06T05:47:35.874Z,9.20
2023-02-06T05:50:04.308Z,10.25
2023-02-06T05:52:33.976Z,9.40
2023-02-06T05:55:02.654Z,9.70
2023-02-06T05:57:30.970Z,10.05
2023-02-06T05:59:59.211Z,9.50
2023-02-06T06:02:27.604Z,9.90
2023-02-06T06:04:55.919Z,9.43
2023-02-06T06:07:24.143Z,9.23
2023-02-06T06:09:53.858Z,9.57
2023-02-06T06:12:22.179Z,9.07
2023-02-06T06:14:50.483Z,8.63
2023-02-06T06:17:18.883Z,9.93
2023-02-06T06:19:47.441Z,11.00
2023-02-06T06:22:15.723Z,11.15
2023-02-06T06:24:44.175Z,11.27
2023-02-06T06:27:13.946Z,11.25
2023-02-06T06:29:42.179Z,10.32
2023-02-06T06:32:10.480Z,10.45
2023-02-06T06:34:38.940Z,10.13
2023-02-06T06:37:07.113Z,9.48
2023-02-06T06:39:35.378Z,9.63
2023-02-06T06:42:04.624Z,9.90
2023-02-06T06:44:34.356Z,9.50
2023-02-06T06:47:02.891Z,10.20
2023-02-06T06:49:31.280Z,12.00
2023-02-06T06:51:59.700Z,12.13
2023-02-06T06:54:28.015Z,12.40
2023-02-06T06:56:56.539Z,12.80
2023-02-06T06:59:25.069Z,12.75
2023-02-06T07:01:54.580Z,12.68
2023-02-06T07:04:23.302Z,13.25
2023-02-06T07:06:51.677Z,13.32
2023-02-06T07:09:19.953Z,16.05
2023-02-06T07:11:48.286Z,14.77
2023-02-06T07:14:16.952Z,14.10
2023-02-06T07:16:45.217Z,14.18
2023-02-06T07:19:15.081Z,14.93
2023-02-06T07:21:43.394Z,14.45
2023-02-06T07:24:11.624Z,16.13
2023-02-06T07:26:41.698Z,14.80
2023-02-06T07:29:10.078Z,15.10
2023-02-06T07:31:38.399Z,15.65
2023-02-06T07:34:06.797Z,14.52
2023-02-06T07:36:37.559Z,14.65
2023-02-06T07:39:06.033Z,12.85
2023-02-06T07:41:34.335Z,14.23
2023-02-06T07:44:02.530Z,14.45
2023-02-06T07:46:30.986Z,14.10
2023-02-06T07:48:59.703Z,14.60
2023-02-06T07:51:28.149Z,14.35
2023-02-06T07:53:57.903Z,15.07
2023-02-06T07:56:26.528Z,14.82
2023-02-06T07:58:56.561Z,15.25
2023-02-06T08:01:24.908Z,15.43
2023-02-06T08:03:54.326Z,16.60
2023-02-06T08:06:24.536Z,17.15
2023-02-06T08:08:55.307Z,16.10
2023-02-06T08:11:30.376Z,15.60
2023-02-06T08:13:59.005Z,15.07
2023-02-06T08:16:27.405Z,13.52
2023-02-06T08:18:56.066Z,14.38
2023-02-06T08:21:25.886Z,13.80
2023-02-06T08:23:58.127Z,12.82
2023-02-06T08:26:29.307Z,12.60
2023-02-06T08:28:58.938Z,11.85
2023-02-06T08:31:29.424Z,13.07
2023-02-06T08:33:58.550Z,12.27
2023-02-06T08:36:28.105Z,11.82
2023-02-06T08:38:56.838Z,14.13
2023-02-06T08:41:28.327Z,14.80
2023-02-06T08:43:58.319Z,13.52
2023-02-06T08:46:29.392Z,13.27
2023-02-06T08:48:58.326Z,11.48
2023-02-06T08:51:28.165Z,11.60
2023-02-06T08:53:58.394Z,10.82
2023-02-06T08:56:28.853Z,10.68
2023-02-06T08:59:00.680Z,10.70
2023-02-06T09:01:30.295Z,10.43
2023-02-06T09:03:59.779Z,9.40
2023-02-06T09:06:29.668Z,9.40
2023-02-06T09:08:59.122Z,10.52
2023-02-06T09:11:30.030Z,10.30
2023-02-06T09:14:00.441Z,10.20
2023-02-06T09:16:30.167Z,8.65
2023-02-06T09:19:01.497Z,9.20
2023-02-06T09:21:31.345Z,7.38
2023-02-06T09:24:02.420Z,8.05
2023-02-06T09:26:38.944Z,7.00
2023-02-06T09:29:09.749Z,7.22
2023-02-06T09:31:39.567Z,7.57
2023-02-06T09:34:08.450Z,7.80
2023-02-06T09:36:37.766Z,7.07
2023-02-06T09:39:07.244Z,7.80
2023-02-06T09:41:41.835Z,7.60
2023-02-06T09:44:16.334Z,7.07
2023-02-06T09:46:49.617Z,7.55
2023-02-06T09:49:23.850Z,7.32
2023-02-06T09:52:11.073Z,8.38
2023-02-06T09:54:47.723Z,7.63
2023-02-06T09:57:23.238Z,6.82
2023-02-06T09:59:58.254Z,7.63
2023-02-06T10:02:52.605Z,8.77
2023-02-06T10:05:27.034Z,7.90
2023-02-06T10:08:04.515Z,8.60
2023-02-06T10:10:40.126Z,8.00
2023-02-06T10:13:17.455Z,9.20
2023-02-06T10:15:49.264Z,10.57
2023-02-06T10:18:23.230Z,10.45
2023-02-06T10:20:54.723Z,10.73
2023-02-06T10:23:30.282Z,10.38
2023-02-06T10:26:12.395Z,10.85
2023-02-06T10:28:42.605Z,9.10
2023-02-06T10:31:45.100Z,9.63
2023-02-06T10:34:28.606Z,9.85
2023-02-06T10:37:10.519Z,9.20
2023-02-06T10:39:50.283Z,10.27
2023-02-06T10:42:24.798Z,9.55
2023-02-06T10:45:16.978Z,10.18
2023-02-06T10:47:54.323Z,10.93
2023-02-06T10:50:29.705Z,11.10
2023-02-06T10:53:00.486Z,11.20
2023-02-06T10:55:31.629Z,15.00
2023-02-06T10:58:06.858Z,12.77
2023-02-06T11:00:37.332Z,13.00
2023-02-06T11:03:08.750Z,11.93
2023-02-06T11:05:38.805Z,13.00
2023-02-06T11:08:15.030Z,11.30
2023-02-06T11:10:43.638Z,11.65
2023-02-06T11:13:15.510Z,11.65
2023-02-06T11:16:01.001Z,10.60
2023-02-06T11:18:32.961Z,11.13
2023-02-06T11:21:02.505Z,10.60
2023-02-06T11:23:34.709Z,11.13
2023-02-06T11:26:10.792Z,10.55
2023-02-06T11:28:49.769Z,10.25
2023-02-06T11:31:21.304Z,8.80
2023-02-06T11:33:52.567Z,8.52
2023-02-06T11:36:27.429Z,8.48
2023-02-06T11:38:57.726Z,7.45
2023-02-06T11:41:26.413Z,8.40
2023-02-06T11:44:01.696Z,7.55
2023-02-06T11:46:35.205Z,7.25
2023-02-06T11:49:09.154Z,6.55
2023-02-06T11:51:49.957Z,6.15
2023-02-06T11:54:28.481Z,6.72
2023-02-06T11:57:03.428Z,6.63
2023-02-06T11:59:34.679Z,6.05
2023-02-06T12:02:25.757Z,6.13
2023-02-06T12:04:58.429Z,5.97
2023-02-06T12:07:31.031Z,6.95
2023-02-06T12:09:59.585Z,6.00
2023-02-06T12:12:33.155Z,6.07
2023-02-06T12:15:29.453Z,7.13
2023-02-06T12:18:01.362Z,7.10
2023-02-06T12:20:32.486Z,7.38
2023-02-06T12:23:05.252Z,6.35
2023-02-06T12:25:37.026Z,7.37
2023-02-06T12:28:12.892Z,6.85
2023-02-06T12:30:46.788Z,8.52
2023-02-06T12:33:21.509Z,7.53
2023-02-06T12:35:53.420Z,7.78
2023-02-06T12:38:30.618Z,7.63
2023-02-06T12:41:10.978Z,9.93
2023-02-06T12:43:40.587Z,9.77
2023-02-06T12:46:14.967Z,13.15
2023-02-06T12:48:50.900Z,17.58
2023-02-06T12:51:23.303Z,20.15
2023-02-06T12:53:57.066Z,19.60
2023-02-06T12:56:31.455Z,20.50
2023-02-06T12:59:15.786Z,19.58
2023-02-06T13:01:54.322Z,19.95
2023-02-06T13:04:26.362Z,18.88
2023-02-06T13:06:57.826Z,20.42
2023-02-06T13:09:30.181Z,20.48
2023-02-06T13:12:13.358Z,20.48
2023-02-06T13:14:48.955Z,19.38
2023-02-06T13:17:21.871Z,18.27
2023-02-06T13:20:02.605Z,18.38
2023-02-06T13:22:41.487Z,18.77
2023-02-06T13:25:52.473Z,17.52
2023-02-06T13:28:59.274Z,17.80
2023-02-06T13:31:31.143Z,17.00
2023-02-06T13:34:03.345Z,17.80
2023-02-06T13:36:53.790Z,16.60
2023-02-06T13:39:29.203Z,18.85
2023-02-06T13:42:00.382Z,17.00
2023-02-06T13:44:32.916Z,16.25
2023-02-06T13:47:33.672Z,17.13
2023-02-06T13:50:24.726Z,16.58
2023-02-06T13:53:10.907Z,14.48
2023-02-06T13:55:56.167Z,14.02
2023-02-06T13:58:42.035Z,14.45
2023-02-06T14:01:20.703Z,12.57
2023-02-06T14:03:51.178Z,12.98
2023-02-06T14:06:38.175Z,13.35
2023-02-06T14:09:30.672Z,11.05
2023-02-06T14:12:26.004Z,12.70
2023-02-06T14:15:13.391Z,11.27
2023-02-06T14:17:58.005Z,10.95
2023-02-06T14:20:35.609Z,10.13
2023-02-06T14:23:13.743Z,9.52
2023-02-06T14:26:05.653Z,9.73
2023-02-06T14:28:44.627Z,9.60
2023-02-06T14:31:24.347Z,9.63
2023-02-06T14:34:09.940Z,8.70
2023-02-06T14:36:57.515Z,7.97
2023-02-06T14:39:40.349Z,7.50
2023-02-06T14:42:15.991Z,6.90
2023-02-06T14:44:46.244Z,6.72
2023-02-06T14:47:20.791Z,6.95
2023-02-06T14:49:50.591Z,6.65
2023-02-06T14:52:22.807Z,6.75
2023-02-06T14:54:51.266Z,6.88
2023-02-06T14:57:24.112Z,7.75
2023-02-06T14:59:55.189Z,6.40
2023-02-06T15:02:28.604Z,7.18
2023-02-06T15:04:57.787Z,7.57
2023-02-06T15:07:30.570Z,7.18
2023-02-06T15:10:06.974Z,7.40
2023-02-06T15:12:37.335Z,9.52
2023-02-06T15:15:18.311Z,10.25
2023-02-06T15:17:58.032Z,10.40
2023-02-06T15:20:28.990Z,10.70
2023-02-06T15:23:11.721Z,10.90
2023-02-06T15:26:05.371Z,11.35
2023-02-06T15:28:36.306Z,12.07
2023-02-06T15:31:05.261Z,12.20
2023-02-06T15:33:36.094Z,12.30
2023-02-06T15:36:05.745Z,13.40
2023-02-06T15:38:35.312Z,14.07
2023-02-06T15:41:07.701Z,14.45
2023-02-06T15:43:38.008Z,14.55
2023-02-06T15:46:07.196Z,13.32
2023-02-06T15:48:40.238Z,14.27
2023-02-06T15:51:21.880Z,14.15
2023-02-06T15:53:51.670Z,13.98
2023-02-06T15:56:25.060Z,13.85
2023-02-06T15:59:00.898Z,14.73
2023-02-06T16:01:32.093Z,14.85
2023-02-06T16:04:04.340Z,14.55
2023-02-06T16:06:32.981Z,15.25
2023-02-06T16:09:06.539Z,15.02
2023-02-06T16:11:51.190Z,14.07
2023-02-06T16:14:37.403Z,13.98
2023-02-06T16:17:23.042Z,12.77
2023-02-06T16:19:56.203Z,11.00
2023-02-06T16:22:27.116Z,9.93
2023-02-06T16:25:13.124Z,10.57
2023-02-06T16:27:45.205Z,9.93
2023-02-06T16:30:25.766Z,9.35
2023-02-06T16:32:55.526Z,10.38
2023-02-06T16:35:25.278Z,9.93
2023-02-06T16:37:55.794Z,10.30
2023-02-06T16:40:26.194Z,9.35
2023-02-06T16:42:54.719Z,10.98
2023-02-06T16:45:26.414Z,10.13
2023-02-06T16:47:55.993Z,10.65
2023-02-06T16:50:24.283Z,10.40
2023-02-06T16:52:56.407Z,10.07
2023-02-06T16:55:27.239Z,9.95
2023-02-06T16:57:59.125Z,10.30
2023-02-06T17:00:32.616Z,9.68
2023-02-06T17:03:01.097Z,9.48
2023-02-06T17:05:31.482Z,10.13
2023-02-06T17:08:01.722Z,10.77
2023-02-06T17:10:30.398Z,10.00
2023-02-06T17:12:59.233Z,10.23
2023-02-06T17:15:27.812Z,9.82
2023-02-06T17:17:57.652Z,11.25
2023-02-06T17:20:32.150Z,11.88
2023-02-06T17:23:00.690Z,9.93
2023-02-06T17:25:29.530Z,12.13
2023-02-06T17:27:57.862Z,10.82
2023-02-06T17:30:27.397Z,10.40
2023-02-06T17:32:57.441Z,10.65
2023-02-06T17:35:25.920Z,11.07
2023-02-06T17:37:54.405Z,10.80
2023-02-06T17:40:25.332Z,11.48
2023-02-06T17:42:54.003Z,11.25
2023-02-06T17:45:22.911Z,11.60
2023-02-06T17:47:51.520Z,11.40
2023-02-06T17:50:23.035Z,12.18
2023-02-06T17:52:53.006Z,10.55
2023-02-06T17:55:21.533Z,11.68
2023-02-06T17:57:50.199Z,11.35
2023-02-06T18:00:22.591Z,11.15
2023-02-06T18:02:50.950Z,11.60
2023-02-06T18:05:21.637Z,12.05
2023-02-06T18:07:51.834Z,11.20
2023-02-06T18:10:21.048Z,11.07
2023-02-06T18:12:49.493Z,10.07
2023-02-06T18:15:18.895Z,10.98
2023-02-06T18:17:47.376Z,9.25
2023-02-06T18:20:16.379Z,10.88
2023-02-06T18:22:46.733Z,11.75
2023-02-06T18:25:16.233Z,11.07
2023-02-06T18:27:46.152Z,8.85
2023-02-06T18:30:15.732Z,9.07
2023-02-06T18:32:44.125Z,8.57
2023-02-06T18:35:12.574Z,9.57
2023-02-06T18:37:41.148Z,8.60
2023-02-06T18:40:12.056Z,8.30
2023-02-06T18:42:52.131Z,8.38
2023-02-06T18:45:21.169Z,9.43
2023-02-06T18:47:51.415Z,8.80
2023-02-06T18:50:22.159Z,9.38
2023-02-06T18:52:51.018Z,8.57
2023-02-06T18:55:21.246Z,9.13
2023-02-06T18:57:50.050Z,9.38
2023-02-06T19:00:20.747Z,9.07
2023-02-06T19:02:49.246Z,9.25
2023-02-06T19:05:18.681Z,9.48
2023-02-06T19:07:50.117Z,9.57
2023-02-06T19:10:20.702Z,9.02
2023-02-06T19:12:49.320Z,9.05
2023-02-06T19:15:17.742Z,9.48
2023-02-06T19:17:46.141Z,10.35
2023-02-06T19:20:14.756Z,11.50
2023-02-06T19:22:43.000Z,10.02
2023-02-06T19:25:14.534Z,9.55
2023-02-06T19:27:44.541Z,8.75
2023-02-06T19:30:14.453Z,8.00
2023-02-06T19:32:43.490Z,8.57
2023-02-06T19:35:13.090Z,13.30
2023-02-06T19:37:41.531Z,10.95
2023-02-06T19:40:10.591Z,9.32
2023-02-06T19:42:40.101Z,8.45
2023-02-06T19:45:10.293Z,8.48
2023-02-06T19:47:38.550Z,9.57
2023-02-06T19:50:07.696Z,8.35
2023-02-06T19:52:36.250Z,8.05
2023-02-06T19:55:04.693Z,7.65
2023-02-06T19:57:33.039Z,7.75
2023-02-06T20:00:01.594Z,8.40
2023-02-06T20:02:31.244Z,7.25
2023-02-06T20:05:02.158Z,7.65
2023-02-06T20:07:31.848Z,6.68
2023-02-06T20:10:00.239Z,6.75
2023-02-06T20:12:29.123Z,7.07
2023-02-06T20:14:57.585Z,8.38
2023-02-06T20:17:26.958Z,7.28
2023-02-06T20:20:00.793Z,7.90
2023-02-06T20:22:30.145Z,9.55
2023-02-06T20:24:58.492Z,9.52
2023-02-06T20:27:27.719Z,9.52
2023-02-06T20:29:56.025Z,11.27
2023-02-06T20:32:24.404Z,10.82
2023-02-06T20:34:53.262Z,9.65
2023-02-06T20:37:22.950Z,9.13
2023-02-06T20:39:51.212Z,8.50
2023-02-06T20:42:22.769Z,9.43
2023-02-06T20:44:51.649Z,8.52
2023-02-06T20:47:19.995Z,8.82
2023-02-06T20:49:48.579Z,8.07
2023-02-06T20:52:17.030Z,8.65
2023-02-06T20:54:46.916Z,10.65
2023-02-06T20:57:15.615Z,9.90
2023-02-06T20:59:43.917Z,10.48
2023-02-06T21:02:12.359Z,9.40
2023-02-06T21:04:40.850Z,12.10
2023-02-06T21:07:09.075Z,11.27
2023-02-06T21:09:37.588Z,10.63
2023-02-06T21:12:07.807Z,9.88
2023-02-06T21:14:36.077Z,11.13
2023-02-06T21:17:04.527Z,9.07
2023-02-06T21:19:33.007Z,10.18
2023-02-06T21:22:01.582Z,8.85
2023-02-06T21:24:30.272Z,9.55
2023-02-06T21:26:58.643Z,9.15
2023-02-06T21:29:28.471Z,9.40
2023-02-06T21:32:12.266Z,8.75
2023-02-06T21:34:41.476Z,8.35
2023-02-06T21:37:10.328Z,9.52
2023-02-06T21:39:40.960Z,8.50
2023-02-06T21:42:10.110Z,9.15
2023-02-06T21:44:39.911Z,9.25
2023-02-06T21:47:10.120Z,9.02
2023-02-06T21:49:39.144Z,8.82
2023-02-06T21:52:07.424Z,8.45
2023-02-06T21:54:35.970Z,8.55
2023-02-06T21:57:04.488Z,9.00
2023-02-06T21:59:34.159Z,8.93
2023-02-06T22:02:03.878Z,9.05
2023-02-06T22:04:32.557Z,10.10
2023-02-06T22:07:00.831Z,9.85
2023-02-06T22:09:29.304Z,10.55
2023-02-06T22:11:58.452Z,11.30
2023-02-06T22:14:27.229Z,12.48
2023-02-06T22:16:55.569Z,10.88
2023-02-06T22:19:25.608Z,10.70
2023-02-06T22:21:53.912Z,11.75
2023-02-06T22:24:22.694Z,12.48
2023-02-06T22:26:51.324Z,11.85
2023-02-06T22:29:19.674Z,12.80
2023-02-06T22:31:48.557Z,14.95
2023-02-06T22:34:18.761Z,14.35
2023-02-06T22:36:49.102Z,13.65
2023-02-06T22:39:17.851Z,15.82
2023-02-06T22:41:47.398Z,15.80
2023-02-06T22:44:17.185Z,14.43
2023-02-06T22:46:47.839Z,14.18
2023-02-06T22:49:16.837Z,13.77
2023-02-06T22:51:45.130Z,15.45
2023-02-06T22:54:15.780Z,15.27
2023-02-06T22:56:44.885Z,14.43
2023-02-06T22:59:16.934Z,13.32
2023-02-06T23:01:47.208Z,12.85
2023-02-06T23:04:17.529Z,12.45
2023-02-06T23:06:46.509Z,12.60
2023-02-06T23:09:18.701Z,11.65
2023-02-06T23:11:47.490Z,12.23
2023-02-06T23:14:16.962Z,11.52
2023-02-06T23:16:46.063Z,12.07
2023-02-06T23:19:15.716Z,11.77
2023-02-06T23:21:47.686Z,12.35
2023-02-06T23:24:18.095Z,13.25
2023-02-06T23:26:49.410Z,12.60
2023-02-06T23:29:19.139Z,12.32
2023-02-06T23:31:48.718Z,13.25
2023-02-06T23:34:17.953Z,12.63
2023-02-06T23:36:47.196Z,13.00
2023-02-06T23:39:16.993Z,14.05
2023-02-06T23:41:45.367Z,15.68
2023-02-06T23:44:13.865Z,15.70
2023-02-06T23:46:42.784Z,15.68
2023-02-06T23:49:11.923Z,15.57
2023-02-06T23:51:40.457Z,17.08
2023-02-06T23:54:09.910Z,15.73
2023-02-06T23:56:40.252Z,16.33
2023-02-06T23:59:08.763Z,16.05
